Time;durP1;ratioP1;P1;durP2;ratioP2;P2;SDS_P1;SDS_P2;PMS_P1;PMS_P2;Temp;Humidity;BMP_temperature;BMP_pressure;BME280_temperature;BME280_humidity;BME280_pressure;Samples;Min_cycle;Max_cycle;Signal;HPM_P1;HPM_P2
2021/07/01 00:02:07;;;;;;;;;;;;;;;16.22;100.00;100153.88;5072811;28;19963;-70
2021/07/01 00:04:33;;;;;;;;;;;;;;;16.21;100.00;100152.19;5072945;28;19921;-71
2021/07/01 00:06:59;;;;;;;;;;;;;;;16.24;100.00;100162.78;5073535;28;20383;-70
2021/07/01 00:09:26;;;;;;;;;;;;;;;16.20;100.00;100158.69;5091932;28;19924;-71
2021/07/01 00:11:55;;;;;;;;;;;;;;;16.20;100.00;100153.22;5093165;28;19927;-70
2021/07/01 00:14:23;;;;;;;;;;;;;;;16.19;100.00;100156.97;5093437;28;19928;-70
2021/07/01 00:16:50;;;;;;;;;;;;;;;16.18;100.00;100150.66;5092636;28;20348;-70
2021/07/01 00:19:16;;;;;;;;;;;;;;;16.19;100.00;100148.75;5092934;28;20403;-70
2021/07/01 00:21:43;;;;;;;;;;;;;;;16.18;100.00;100134.22;5092963;28;20379;-70
2021/07/01 00:24:09;;;;;;;;;;;;;;;16.18;100.00;100136.97;5092516;28;20383;-70
2021/07/01 00:26:37;;;;;;;;;;;;;;;16.18;100.00;100131.50;5092688;28;20301;-70
2021/07/01 00:29:03;;;;;;;;;;;;;;;16.18;100.00;100125.13;5092812;28;19960;-70
2021/07/01 00:31:31;;;;;;;;;;;;;;;16.16;100.00;100129.97;5092712;28;19956;-70
2021/07/01 00:34:00;;;;;;;;;;;;;;;16.13;100.00;100120.22;5093136;28;19959;-70
2021/07/01 00:36:26;;;;;;;;;;;;;;;16.15;100.00;100118.13;5092621;28;19991;-70
2021/07/01 00:38:53;;;;;;;;;;;;;;;16.14;100.00;100112.84;5091273;28;19920;-70
2021/07/01 00:41:20;;;;;;;;;;;;;;;16.15;100.00;100114.56;5092558;28;19919;-71
2021/07/01 00:43:47;;;;;;;;;;;;;;;16.13;100.00;100103.78;5092233;28;19924;-68
2021/07/01 00:46:14;;;;;;;;;;;;;;;16.10;100.00;100106.00;5074167;28;20034;-67
2021/07/01 00:48:41;;;;;;;;;;;;;;;16.09;100.00;100110.63;5073990;28;20367;-67
2021/07/01 00:51:08;;;;;;;;;;;;;;;16.12;100.00;100104.81;5092152;28;19973;-67
2021/07/01 00:53:34;;;;;;;;;;;;;;;16.11;100.00;100103.09;5091149;28;20312;-67
2021/07/01 00:56:02;;;;;;;;;;;;;;;16.11;100.00;100105.81;5090958;28;19919;-67
2021/07/01 00:58:29;;;;;;;;;;;;;;;16.06;100.00;100105.50;5073747;28;19920;-67
2021/07/01 01:01:01;;;;;;;;;;;;;;;16.04;100.00;100094.72;5074015;28;19927;-68
2021/07/01 01:03:28;;;;;;;;;;;;;;;16.05;100.00;100103.81;5092060;28;20331;-69
2021/07/01 01:05:56;;;;;;;;;;;;;;;16.05;100.00;100098.34;5074090;28;20294;-67
2021/07/01 01:08:23;;;;;;;;;;;;;;;16.03;100.00;100098.53;5092251;28;20383;-68
2021/07/01 01:10:49;;;;;;;;;;;;;;;16.00;100.00;100098.00;5092117;28;20306;-68
2021/07/01 01:13:36;;;;;;;;;;;;;;;16.00;100.00;100089.78;5091529;28;19926;-68
2021/07/01 01:16:24;;;;;;;;;;;;;;;16.00;100.00;100098.00;5073367;28;19924;-68
2021/07/01 01:18:51;;;;;;;;;;;;;;;15.94;100.00;100098.69;5091540;28;19927;-68
2021/07/01 01:21:23;;;;;;;;;;;;;;;15.96;100.00;100096.66;5073137;28;19942;-68
2021/07/01 01:23:51;;;;;;;;;;;;;;;15.95;100.00;100097.66;5073844;28;19920;-68
2021/07/01 01:26:17;;;;;;;;;;;;;;;15.94;100.00;100093.22;5091404;28;19920;-68
2021/07/01 01:28:48;;;;;;;;;;;;;;;15.93;100.00;100094.25;5091259;28;19935;-68
2021/07/01 01:31:15;;;;;;;;;;;;;;;15.89;100.00;100089.13;5073201;28;19920;-67
2021/07/01 01:33:42;;;;;;;;;;;;;;;15.89;100.00;100091.88;5073619;28;20020;-68
2021/07/01 01:36:09;;;;;;;;;;;;;;;15.86;100.00;100092.22;5073451;28;20299;-67
2021/07/01 01:38:37;;;;;;;;;;;;;;;15.87;100.00;100087.59;5072894;28;19920;-67
2021/07/01 01:41:28;;;;;;;;;;;;;;;15.86;100.00;100088.63;5073245;28;20021;-67
2021/07/01 01:43:55;;;;;;;;;;;;;;;15.85;100.00;100086.94;5073153;28;19959;-68
2021/07/01 01:46:22;;;;;;;;;;;;;;;15.83;100.00;100089.84;5073055;28;20022;-67
2021/07/01 01:48:52;;;;;;;;;;;;;;;15.83;100.00;100089.84;5089932;28;20019;-69
2021/07/01 01:51:19;;;;;;;;;;;;;;;15.84;100.00;100094.25;5072694;28;19982;-67
2021/07/01 01:53:46;;;;;;;;;;;;;;;15.82;100.00;100088.13;5071710;28;20406;-69
2021/07/01 01:56:13;;;;;;;;;;;;;;;15.78;100.00;100084.00;5070819;28;19920;-69
2021/07/01 01:58:44;;;;;;;;;;;;;;;15.78;100.00;100089.47;5072854;28;20014;-70
2021/07/01 02:01:29;;;;;;;;;;;;;;;15.76;100.00;100086.06;5091108;28;20460;-67
2021/07/01 02:04:01;;;;;;;;;;;;;;;15.74;100.00;100079.91;5073183;28;20442;-67
2021/07/01 02:06:41;;;;;;;;;;;;;;;15.76;100.00;100087.94;5072946;28;19924;-68
2021/07/01 02:09:07;;;;;;;;;;;;;;;15.75;100.00;100095.28;5072962;28;19929;-69
2021/07/01 02:11:43;;;;;;;;;;;;;;;15.69;100.00;100087.78;5070630;28;20422;-69
2021/07/01 02:14:15;;;;;;;;;;;;;;;15.71;100.00;100089.31;5072493;28;19928;-69
2021/07/01 02:17:00;;;;;;;;;;;;;;;15.68;100.00;100083.34;5090917;28;19965;-68
2021/07/01 02:19:27;;;;;;;;;;;;;;;15.70;100.00;100087.59;5090790;28;19924;-68
2021/07/01 02:21:53;;;;;;;;;;;;;;;15.68;100.00;100089.66;5090046;28;19937;-68
2021/07/01 02:24:20;;;;;;;;;;;;;;;15.68;100.00;100094.28;5091173;28;20027;-68
2021/07/01 02:26:46;;;;;;;;;;;;;;;15.67;100.00;100087.97;5072673;28;19927;-68
2021/07/01 02:29:15;;;;;;;;;;;;;;;15.69;100.00;100082.31;5089653;28;19923;-68
2021/07/01 02:32:17;;;;;;;;;;;;;;;15.68;100.00;100091.53;5081779;28;19920;-69
2021/07/01 02:34:44;;;;;;;;;;;;;;;15.69;100.00;100085.06;5076833;28;19920;-69
2021/07/01 02:37:30;;;;;;;;;;;;;;;15.68;100.00;100086.06;5094330;28;19926;-69
2021/07/01 02:40:03;;;;;;;;;;;;;;;15.68;100.00;100083.34;5076752;28;19920;-69
2021/07/01 02:42:38;;;;;;;;;;;;;;;15.67;100.00;100068.81;5093404;28;19974;-69
2021/07/01 02:45:07;;;;;;;;;;;;;;;15.64;100.00;100077.34;5076637;28;20015;-68
2021/07/01 02:47:45;;;;;;;;;;;;;;;15.63;100.00;100081.09;5094062;28;19963;-68
2021/07/01 02:50:12;;;;;;;;;;;;;;;15.60;100.00;100080.63;5076137;28;19920;-69
2021/07/01 02:52:39;;;;;;;;;;;;;;;15.57;100.00;100082.66;5076572;28;20370;-69
2021/07/01 02:55:07;;;;;;;;;;;;;;;15.57;100.00;100084.56;5076302;28;19920;-69
2021/07/01 02:57:34;;;;;;;;;;;;;;;15.60;100.00;100088.81;5094186;28;20375;-69
2021/07/01 03:00:00;;;;;;;;;;;;;;;15.57;100.00;100081.81;5094126;28;19947;-69
2021/07/01 03:02:40;;;;;;;;;;;;;;;15.56;100.00;100083.69;5076279;28;20348;-69
2021/07/01 03:05:15;;;;;;;;;;;;;;;15.54;100.00;100090.38;5076337;28;19924;-69
2021/07/01 03:07:41;;;;;;;;;;;;;;;15.52;100.00;100082.31;5093634;28;19919;-70
2021/07/01 03:10:08;;;;;;;;;;;;;;;15.52;100.00;100085.06;5076081;28;19919;-69
2021/07/01 03:12:52;;;;;;;;;;;;;;;15.51;100.00;100088.84;5075915;28;19946;-69
2021/07/01 03:15:18;;;;;;;;;;;;;;;15.53;100.00;100099.59;5075990;28;19920;-68
2021/07/01 03:17:46;;;;;;;;;;;;;;;15.51;100.00;100090.69;5075488;28;19928;-70
2021/07/01 03:20:13;;;;;;;;;;;;;;;15.47;100.00;100105.75;5075940;28;19920;-70
2021/07/01 03:22:57;;;;;;;;;;;;;;;15.47;100.00;100106.59;5075733;28;20069;-69
2021/07/01 03:25:24;;;;;;;;;;;;;;;15.44;100.00;100101.47;5092579;28;19998;-69
2021/07/01 03:27:50;;;;;;;;;;;;;;;15.43;100.00;100107.13;5075539;28;19953;-72
2021/07/01 03:30:17;;;;;;;;;;;;;;;15.39;100.00;100107.47;5075392;28;20356;-72
2021/07/01 03:32:45;;;;;;;;;;;;;;;15.40;100.00;100100.94;5075803;28;19920;-71
2021/07/01 03:35:13;;;;;;;;;;;;;;;15.36;100.00;100107.78;5058572;28;19926;-71
2021/07/01 03:38:15;;;;;;;;;;;;;;;15.35;100.00;100091.56;5030863;28;19921;-72
2021/07/01 03:40:55;;;;;;;;;;;;;;;15.29;100.00;100095.84;5085548;28;19920;-72
2021/07/01 03:43:23;;;;;;;;;;;;;;;15.23;100.00;100089.19;5073977;28;19981;-71
2021/07/01 03:45:53;;;;;;;;;;;;;;;15.12;100.00;100081.31;5074956;28;19931;-72
2021/07/01 03:48:22;;;;;;;;;;;;;;;15.10;100.00;100079.75;5057435;28;19927;-72
2021/07/01 03:51:09;;;;;;;;;;;;;;;15.07;100.00;100072.75;5074908;28;19927;-72
2021/07/01 03:53:52;;;;;;;;;;;;;;;14.99;100.00;100068.16;5057278;28;19973;-71
2021/07/01 03:56:19;;;;;;;;;;;;;;;14.96;100.00;100068.47;5074824;28;20352;-71
2021/07/01 03:58:45;;;;;;;;;;;;;;;14.95;100.00;100069.53;5074797;28;19994;-70
2021/07/01 04:01:41;;;;;;;;;;;;;;;14.89;100.00;100070.19;5091911;28;19920;-70
2021/07/01 04:04:08;;;;;;;;;;;;;;;14.86;100.00;100070.53;5058008;28;19963;-69
2021/07/01 04:06:37;;;;;;;;;;;;;;;14.83;100.00;100066.25;5074584;28;20019;-70
2021/07/01 04:09:04;;;;;;;;;;;;;;;14.84;100.00;100078.03;5074125;28;20016;-71
2021/07/01 04:11:34;;;;;;;;;;;;;;;14.79;100.00;100064.03;5074820;28;19928;-70
2021/07/01 04:14:02;;;;;;;;;;;;;;;14.78;100.00;100071.38;5070324;28;19920;-70
2021/07/01 04:16:47;;;;;;;;;;;;;;;14.78;100.00;100071.38;5071039;28;20306;-72
2021/07/01 04:19:32;;;;;;;;;;;;;;;14.79;100.00;100072.22;5089741;28;19927;-72
2021/07/01 04:22:18;;;;;;;;;;;;;;;14.81;100.00;100083.84;5072210;28;19934;-71
2021/07/01 04:25:05;;;;;;;;;;;;;;;14.79;100.00;100084.03;5071828;28;19936;-73
2021/07/01 04:27:38;;;;;;;;;;;;;;;14.80;100.00;100088.44;5072329;28;19920;-71
2021/07/01 04:30:05;;;;;;;;;;;;;;;14.81;100.00;100081.97;5074196;28;19920;-71
2021/07/01 04:32:52;;;;;;;;;;;;;;;14.82;100.00;100091.88;5091751;28;19940;-71
2021/07/01 04:35:18;;;;;;;;;;;;;;;14.82;100.00;100088.28;5072336;28;19920;-72
2021/07/01 04:37:46;;;;;;;;;;;;;;;14.84;100.00;100095.28;5073548;28;20390;-71
2021/07/01 04:40:13;;;;;;;;;;;;;;;14.85;100.00;100093.41;5073470;28;19927;-71
2021/07/01 04:42:45;;;;;;;;;;;;;;;14.82;100.00;100097.34;5074338;28;19927;-72
2021/07/01 04:45:12;;;;;;;;;;;;;;;14.80;100.00;100093.06;5073698;28;20379;-72
2021/07/01 04:47:39;;;;;;;;;;;;;;;14.78;100.00;100098.69;5092194;28;20018;-71
2021/07/01 04:50:06;;;;;;;;;;;;;;;14.77;100.00;100094.25;5091289;28;19928;-71
2021/07/01 04:52:36;;;;;;;;;;;;;;;14.71;100.00;100105.81;5091348;28;20311;-72
2021/07/01 04:55:36;;;;;;;;;;;;;;;14.68;100.00;100106.19;5020147;28;19956;-72
2021/07/01 04:58:31;;;;;;;;;;;;;;;14.64;100.00;100099.34;5066920;28;19920;-71
2021/07/01 05:01:18;;;;;;;;;;;;;;;14.59;100.00;100098.94;5091668;28;20416;-72
2021/07/01 05:04:03;;;;;;;;;;;;;;;14.61;100.00;100094.19;5091638;28;20405;-71
2021/07/01 05:06:29;;;;;;;;;;;;;;;14.56;100.00;100098.28;5073415;28;19924;-71
2021/07/01 05:08:56;;;;;;;;;;;;;;;14.56;100.00;100108.31;5072629;28;20014;-71
2021/07/01 05:11:24;;;;;;;;;;;;;;;14.53;100.00;100106.78;5072949;28;19923;-71
2021/07/01 05:13:51;;;;;;;;;;;;;;;14.52;100.00;100105.09;5072786;28;19920;-71
2021/07/01 05:16:18;;;;;;;;;;;;;;;14.51;100.00;100108.84;5056665;28;20420;-71
2021/07/01 05:18:44;;;;;;;;;;;;;;;14.47;100.00;100104.72;5072179;28;19966;-71
2021/07/01 05:21:18;;;;;;;;;;;;;;;14.45;100.00;100120.41;5073197;28;19951;-71
2021/07/01 05:24:13;;;;;;;;;;;;;;;14.42;100.00;100117.13;5089364;28;19927;-73
2021/07/01 05:26:59;;;;;;;;;;;;;;;14.40;100.00;100112.72;5090783;28;19947;-72
2021/07/01 05:29:44;;;;;;;;;;;;;;;14.40;100.00;100098.19;5084271;28;19931;-71
2021/07/01 05:32:29;;;;;;;;;;;;;;;14.40;100.00;100106.38;5090775;28;19926;-71
2021/07/01 05:35:12;;;;;;;;;;;;;;;14.44;100.00;100107.75;5058307;28;19963;-71
2021/07/01 05:37:47;;;;;;;;;;;;;;;14.45;100.00;100100.44;5086331;28;19930;-70
2021/07/01 05:40:17;;;;;;;;;;;;;;;14.39;100.00;100123.78;5071396;28;20307;-70
2021/07/01 05:42:46;;;;;;;;;;;;;;;14.38;100.00;100113.91;5072303;28;19969;-71
2021/07/01 05:45:12;;;;;;;;;;;;;;;14.37;100.00;100113.03;5090630;28;19920;-70
2021/07/01 05:47:40;;;;;;;;;;;;;;;14.37;100.00;100120.38;5072997;28;20379;-71
2021/07/01 05:50:07;;;;;;;;;;;;;;;14.36;100.00;100113.19;5090256;28;20272;-70
2021/07/01 05:52:35;;;;;;;;;;;;;;;14.38;100.00;100122.09;5091070;28;19920;-69
2021/07/01 05:55:01;;;;;;;;;;;;;;;14.39;100.00;100108.28;5091810;28;19919;-70
2021/07/01 05:57:28;;;;;;;;;;;;;;;14.36;100.00;100114.06;5078875;28;20188;-70
2021/07/01 05:59:56;;;;;;;;;;;;;;;14.36;100.00;100124.13;5073333;28;20015;-70
2021/07/01 06:02:23;;;;;;;;;;;;;;;14.30;100.00;100131.09;5072829;28;19953;-70
2021/07/01 06:04:49;;;;;;;;;;;;;;;14.33;100.00;100124.47;5055775;28;19966;-70
2021/07/01 06:07:35;;;;;;;;;;;;;;;14.29;100.00;100134.00;5092715;28;19927;-70
2021/07/01 06:10:04;;;;;;;;;;;;;;;14.28;100.00;100126.81;5092533;28;19927;-70
2021/07/01 06:12:32;;;;;;;;;;;;;;;14.26;100.00;100126.97;5095144;28;19923;-71
2021/07/01 06:15:00;;;;;;;;;;;;;;;14.31;100.00;100129.22;5094894;28;19924;-70
2021/07/01 06:17:27;;;;;;;;;;;;;;;14.31;100.00;100131.94;5093577;28;19973;-71
2021/07/01 06:19:54;;;;;;;;;;;;;;;14.32;100.00;100133.66;5093933;28;19969;-70
2021/07/01 06:22:21;;;;;;;;;;;;;;;14.31;100.00;100134.66;5094594;28;19920;-70
2021/07/01 06:24:49;;;;;;;;;;;;;;;14.34;100.00;100135.22;5095276;28;20404;-70
2021/07/01 06:27:21;;;;;;;;;;;;;;;14.29;100.00;100126.66;5093890;28;19935;-70
2021/07/01 06:29:47;;;;;;;;;;;;;;;14.30;100.00;100131.09;5094899;28;19920;-70
2021/07/01 06:32:15;;;;;;;;;;;;;;;14.32;100.00;100141.84;5094723;28;19923;-71
2021/07/01 06:34:42;;;;;;;;;;;;;;;14.33;100.00;100146.28;5094865;28;19924;-71
2021/07/01 06:37:09;;;;;;;;;;;;;;;14.38;100.00;100147.50;5094177;28;19932;-71
2021/07/01 06:39:57;;;;;;;;;;;;;;;14.37;100.00;100150.41;5094367;28;19974;-71
2021/07/01 06:42:43;;;;;;;;;;;;;;;14.42;100.00;100158.97;5094400;28;20118;-71
2021/07/01 06:45:28;;;;;;;;;;;;;;;14.39;100.00;100157.41;5094224;28;19939;-69
2021/07/01 06:48:15;;;;;;;;;;;;;;;14.38;100.00;100161.16;5088447;28;19928;-71
2021/07/01 06:51:01;;;;;;;;;;;;;;;14.40;100.00;100174.63;5073867;28;19927;-71
2021/07/01 06:53:48;;;;;;;;;;;;;;;14.39;100.00;100171.06;5052421;28;19924;-71
2021/07/01 06:56:39;;;;;;;;;;;;;;;14.39;100.00;100173.81;5078757;28;20014;-71
2021/07/01 06:59:06;;;;;;;;;;;;;;;14.35;100.00;100161.50;5075410;28;19926;-71
2021/07/01 07:01:32;;;;;;;;;;;;;;;14.36;100.00;100165.06;5093895;28;19924;-71
2021/07/01 07:04:00;;;;;;;;;;;;;;;14.35;100.00;100166.97;5093934;28;19981;-71
2021/07/01 07:06:27;;;;;;;;;;;;;;;14.31;100.00;100165.56;5093951;28;20440;-70
2021/07/01 07:08:53;;;;;;;;;;;;;;;14.25;100.00;100160.75;5075531;28;19977;-70
2021/07/01 07:11:19;;;;;;;;;;;;;;;14.22;100.00;100164.66;5093630;28;19977;-71
2021/07/01 07:13:46;;;;;;;;;;;;;;;14.24;100.00;100180.88;5093987;28;19920;-70
2021/07/01 07:16:12;;;;;;;;;;;;;;;14.18;100.00;100182.38;5093389;28;19980;-70
2021/07/01 07:18:42;;;;;;;;;;;;;;;14.17;100.00;100190.72;5092679;28;19973;-70
2021/07/01 07:21:15;;;;;;;;;;;;;;;14.15;100.00;100188.16;5094071;28;19920;-70
2021/07/01 07:23:41;;;;;;;;;;;;;;;14.15;100.00;100188.16;5092948;28;19943;-70
2021/07/01 07:26:13;;;;;;;;;;;;;;;14.15;100.00;100192.75;5082157;28;19943;-70
2021/07/01 07:28:42;;;;;;;;;;;;;;;14.23;100.00;100192.84;5073014;28;20043;-70
2021/07/01 07:31:10;;;;;;;;;;;;;;;14.16;100.00;100192.63;5079287;28;19928;-70
2021/07/01 07:33:36;;;;;;;;;;;;;;;14.18;100.00;100195.19;5093084;28;19989;-70
2021/07/01 07:36:03;;;;;;;;;;;;;;;14.15;100.00;100193.63;5092682;28;20387;-70
2021/07/01 07:38:30;;;;;;;;;;;;;;;14.18;100.00;100193.31;5092783;28;20299;-70
2021/07/01 07:40:57;;;;;;;;;;;;;;;14.14;100.00;100204.72;5092776;28;19965;-70
2021/07/01 07:43:25;;;;;;;;;;;;;;;14.13;100.00;100201.09;5093185;28;20335;-70
2021/07/01 07:45:52;;;;;;;;;;;;;;;14.12;100.00;100204.00;5093010;28;19920;-70
2021/07/01 07:48:20;;;;;;;;;;;;;;;14.17;100.00;100202.50;5067141;28;19951;-70
2021/07/01 07:50:53;;;;;;;;;;;;;;;14.15;100.00;100206.41;5082520;28;19943;-70
2021/07/01 07:53:22;;;;;;;;;;;;;;;14.13;100.00;100206.56;5082505;28;20032;-70
2021/07/01 07:55:53;;;;;;;;;;;;;;;14.23;100.00;100206.47;5082166;28;19920;-70
2021/07/01 07:58:20;;;;;;;;;;;;;;;14.21;100.00;100208.50;5086923;28;19981;-70
2021/07/01 08:00:47;;;;;;;;;;;;;;;14.25;100.00;100214.50;5092441;28;19959;-70
2021/07/01 08:03:15;;;;;;;;;;;;;;;14.19;100.00;100205.06;5092955;28;19966;-70
2021/07/01 08:05:42;;;;;;;;;;;;;;;14.15;100.00;100206.41;5092540;28;19981;-70
2021/07/01 08:08:11;;;;;;;;;;;;;;;14.21;100.00;100208.50;5092562;28;20354;-70
2021/07/01 08:10:40;;;;;;;;;;;;;;;14.24;100.00;100213.63;5091878;28;20311;-70
2021/07/01 08:13:08;;;;;;;;;;;;;;;14.19;100.00;100216.84;5092264;28;20320;-71
2021/07/01 08:15:35;;;;;;;;;;;;;;;14.20;100.00;100224.03;5092340;28;20370;-70
2021/07/01 08:18:03;;;;;;;;;;;;;;;14.18;100.00;100217.03;5089272;28;19975;-71
2021/07/01 08:20:30;;;;;;;;;;;;;;;14.20;100.00;100213.13;5091856;28;19926;-70
2021/07/01 08:22:56;;;;;;;;;;;;;;;14.22;100.00;100221.13;5092497;28;19920;-70
2021/07/01 08:25:25;;;;;;;;;;;;;;;14.18;100.00;100225.22;5091945;28;19979;-70
2021/07/01 08:27:52;;;;;;;;;;;;;;;14.16;100.00;100222.66;5092244;28;20015;-70
2021/07/01 08:30:21;;;;;;;;;;;;;;;14.14;100.00;100227.38;5091154;28;20412;-70
2021/07/01 08:32:48;;;;;;;;;;;;;;;14.17;100.00;100240.72;5092157;28;20371;-70
2021/07/01 08:35:15;;;;;;;;;;;;;;;14.13;100.00;100239.31;5091783;28;19936;-70
2021/07/01 08:37:43;;;;;;;;;;;;;;;14.16;100.00;100241.75;5078124;28;19927;-70
2021/07/01 08:40:11;;;;;;;;;;;;;;;14.11;100.00;100237.75;5092017;28;19924;-70
2021/07/01 08:42:38;;;;;;;;;;;;;;;14.14;100.00;100240.19;5091692;28;20378;-71
2021/07/01 08:45:05;;;;;;;;;;;;;;;14.09;100.00;100248.84;5092064;28;19973;-70
2021/07/01 08:47:34;;;;;;;;;;;;;;;14.13;100.00;100244.78;5091853;28;19920;-70
2021/07/01 08:50:01;;;;;;;;;;;;;;;14.11;100.00;100246.81;5091567;28;19977;-70
2021/07/01 08:52:28;;;;;;;;;;;;;;;14.13;100.00;100246.66;5091602;28;19963;-70
2021/07/01 08:55:00;;;;;;;;;;;;;;;14.17;100.00;100253.50;5091367;28;19980;-70
2021/07/01 08:57:27;;;;;;;;;;;;;;;14.10;100.00;100252.44;5091750;28;19988;-69
2021/07/01 08:59:59;;;;;;;;;;;;;;;14.02;100.00;100245.91;5091576;28;20345;-71
2021/07/01 09:02:32;;;;;;;;;;;;;;;13.96;100.00;100242.94;5090887;28;19920;-70
2021/07/01 09:05:03;;;;;;;;;;;;;;;13.93;100.00;100252.31;5091642;28;19965;-70
2021/07/01 09:07:29;;;;;;;;;;;;;;;13.89;100.00;100257.22;5091029;28;19924;-70
2021/07/01 09:09:56;;;;;;;;;;;;;;;13.89;100.00;100264.53;5091276;28;20454;-70
2021/07/01 09:12:24;;;;;;;;;;;;;;;13.91;100.00;100276.19;5091265;28;20004;-70
2021/07/01 09:14:50;;;;;;;;;;;;;;;13.89;100.00;100273.56;5090961;28;20183;-70
2021/07/01 09:17:17;;;;;;;;;;;;;;;13.91;100.00;100278.91;5082656;28;19963;-70
2021/07/01 09:19:47;;;;;;;;;;;;;;;13.90;100.00;100272.56;5079070;28;19920;-70
2021/07/01 09:22:17;;;;;;;;;;;;;;;13.90;100.00;100272.56;5091672;28;19920;-70
2021/07/01 09:24:48;;;;;;;;;;;;;;;13.87;100.00;100272.03;5091426;28;19923;-70
2021/07/01 09:27:15;;;;;;;;;;;;;;;13.84;100.00;100278.69;5090691;28;19924;-70
2021/07/01 09:29:42;;;;;;;;;;;;;;;13.92;100.00;100287.94;5091307;28;20397;-70
2021/07/01 09:32:09;;;;;;;;;;;;;;;13.88;100.00;100290.09;5090734;28;19926;-69
2021/07/01 09:34:36;;;;;;;;;;;;;;;13.84;100.00;100286.84;5091281;28;19966;-69
2021/07/01 09:37:03;;;;;;;;;;;;;;;13.83;100.00;100297.91;5090932;28;20366;-69
2021/07/01 09:39:32;;;;;;;;;;;;;;;13.71;100.00;100280.94;5090881;28;20390;-70
2021/07/01 09:42:00;;;;;;;;;;;;;;;13.73;100.00;100290.69;5090430;28;19928;-70
2021/07/01 09:44:27;;;;;;;;;;;;;;;13.77;100.00;100293.09;5090278;28;19934;-70
2021/07/01 09:46:56;;;;;;;;;;;;;;;13.86;100.00;100303.06;5090951;28;19920;-69
2021/07/01 09:49:27;;;;;;;;;;;;;;;13.85;100.00;100306.81;5090557;28;20383;-70
2021/07/01 09:51:54;;;;;;;;;;;;;;;13.82;100.00;100302.50;5069732;28;19921;-70
2021/07/01 09:54:22;;;;;;;;;;;;;;;13.88;100.00;100304.63;5071022;28;19924;-70
2021/07/01 09:56:51;;;;;;;;;;;;;;;13.93;100.00;100314.22;5079773;28;19973;-69
2021/07/01 09:59:21;;;;;;;;;;;;;;;13.87;100.00;100313.81;5090793;28;19926;-70
2021/07/01 10:01:47;;;;;;;;;;;;;;;13.88;100.00;100320.13;5086475;28;19989;-69
2021/07/01 10:04:13;;;;;;;;;;;;;;;13.83;100.00;100319.72;5090711;28;19965;-70
2021/07/01 10:06:40;;;;;;;;;;;;;;;13.81;100.00;100317.16;5091223;28;19929;-70
2021/07/01 10:09:07;;;;;;;;;;;;;;;13.84;100.00;100324.19;5089617;28;19920;-70
2021/07/01 10:11:34;;;;;;;;;;;;;;;13.89;100.00;100325.41;5087652;28;20397;-70
2021/07/01 10:14:04;;;;;;;;;;;;;;;13.85;100.00;100325.91;5090620;28;20158;-70
2021/07/01 10:16:31;;;;;;;;;;;;;;;13.94;100.00;100324.13;5089723;28;19960;-70
2021/07/01 10:18:58;;;;;;;;;;;;;;;13.93;100.00;100325.97;5090255;28;19920;-70
2021/07/01 10:21:26;;;;;;;;;;;;;;;13.99;100.00;100332.66;5090294;28;19924;-68
2021/07/01 10:24:06;;;;;;;;;;;;;;;13.94;100.00;100327.69;5090295;28;19927;-70
2021/07/01 10:26:38;;;;;;;;;;;;;;;13.95;100.00;100328.53;5090552;28;19943;-70
2021/07/01 10:29:06;;;;;;;;;;;;;;;14.02;100.00;100332.38;5090269;28;19942;-71
2021/07/01 10:31:46;;;;;;;;;;;;;;;14.02;100.00;100335.09;5089825;28;20447;-70
2021/07/01 10:34:14;;;;;;;;;;;;;;;14.03;100.00;100342.25;5084280;28;20304;-70
2021/07/01 10:36:40;;;;;;;;;;;;;;;14.00;100.00;100342.56;5077958;28;20288;-70
2021/07/01 10:39:06;;;;;;;;;;;;;;;13.99;100.00;100338.13;5087554;28;19977;-70
2021/07/01 10:41:33;;;;;;;;;;;;;;;14.01;100.00;100350.59;5090196;28;19919;-70
2021/07/01 10:44:01;;;;;;;;;;;;;;;14.05;100.00;100351.16;5090472;28;20373;-70
2021/07/01 10:46:38;;;;;;;;;;;;;;;14.10;100.00;100354.28;5090244;28;19920;-70
2021/07/01 10:49:05;;;;;;;;;;;;;;;14.04;100.00;100354.88;5090732;28;19919;-70
2021/07/01 10:51:32;;;;;;;;;;;;;;;14.04;100.00;100358.50;5090983;28;19924;-70
2021/07/01 10:54:09;;;;;;;;;;;;;;;13.97;100.00;100353.81;5093932;28;19924;-70
2021/07/01 10:56:41;;;;;;;;;;;;;;;14.00;100.00;100350.75;5094196;28;20444;-71
2021/07/01 10:59:08;;;;;;;;;;;;;;;14.07;100.00;100349.97;5088326;28;19920;-71
2021/07/01 11:01:36;;;;;;;;;;;;;;;14.05;100.00;100345.69;5075511;28;20367;-69
2021/07/01 11:04:06;;;;;;;;;;;;;;;14.08;100.00;100356.28;5094066;28;20374;-69
2021/07/01 11:06:32;;;;;;;;;;;;;;;14.11;100.00;100368.75;5093518;28;19920;-70
2021/07/01 11:08:58;;;;;;;;;;;;;;;14.06;100.00;100363.78;5093826;28;20023;-70
2021/07/01 11:11:30;;;;;;;;;;;;;;;14.12;100.00;100374.06;5093760;28;19920;-69
2021/07/01 11:13:57;;;;;;;;;;;;;;;14.10;100.00;100376.09;5093035;28;20308;-70
2021/07/01 11:16:32;;;;;;;;;;;;;;;14.06;100.00;100377.44;5094052;28;19959;-69
2021/07/01 11:18:58;;;;;;;;;;;;;;;14.05;100.00;100389.34;5092892;28;19919;-70
2021/07/01 11:21:26;;;;;;;;;;;;;;;13.97;100.00;100378.38;5093649;28;19963;-69
2021/07/01 11:23:53;;;;;;;;;;;;;;;14.00;100.00;100392.56;5093404;28;19955;-70
2021/07/01 11:26:27;;;;;;;;;;;;;;;14.00;100.00;100402.59;5093760;28;19920;-70
2021/07/01 11:28:54;;;;;;;;;;;;;;;14.00;100.00;100384.38;5093055;28;19920;-70
2021/07/01 11:31:20;;;;;;;;;;;;;;;14.05;100.00;100389.34;5089414;28;19950;-70
2021/07/01 11:33:49;;;;;;;;;;;;;;;14.01;100.00;100393.41;5093105;28;19996;-70
2021/07/01 11:36:16;;;;;;;;;;;;;;;14.05;100.00;100392.94;5075012;28;20012;-70
2021/07/01 11:38:44;;;;;;;;;;;;;;;14.16;100.00;100394.59;5093040;28;19924;-70
2021/07/01 11:41:11;;;;;;;;;;;;;;;14.18;100.00;100406.19;5093344;28;19924;-70
2021/07/01 11:43:38;;;;;;;;;;;;;;;14.23;100.00;100409.31;5092886;28;19973;-70
2021/07/01 11:46:04;;;;;;;;;;;;;;;14.27;100.00;100409.00;5093186;28;19959;-70
2021/07/01 11:48:31;;;;;;;;;;;;;;;14.26;100.00;100402.69;5092710;28;19920;-70
2021/07/01 11:50:58;;;;;;;;;;;;;;;14.27;100.00;100411.72;5092625;28;19924;-70
2021/07/01 11:53:26;;;;;;;;;;;;;;;14.34;100.00;100415.56;5108721;28;19973;-70
2021/07/01 11:55:55;;;;;;;;;;;;;;;14.36;100.00;100421.72;5092133;28;19969;-70
2021/07/01 11:58:21;;;;;;;;;;;;;;;14.45;100.00;100412.56;5092822;28;19926;-71
2021/07/01 12:00:47;;;;;;;;;;;;;;;14.51;100.00;100413.81;5092445;28;19971;-69
2021/07/01 12:03:14;;;;;;;;;;;;;;;14.66;100.00;100419.63;5092720;28;20002;-70
2021/07/01 12:05:41;;;;;;;;;;;;;;;14.59;100.00;100415.75;5091775;28;19927;-69
2021/07/01 12:08:08;;;;;;;;;;;;;;;14.65;100.00;100418.75;5092329;28;19924;-70
2021/07/01 12:10:35;;;;;;;;;;;;;;;14.64;100.00;100413.44;5092566;28;19928;-70
2021/07/01 12:13:02;;;;;;;;;;;;;;;14.66;100.00;100419.63;5092730;28;19920;-69
2021/07/01 12:15:29;;;;;;;;;;;;;;;14.63;100.00;100430.81;5087246;28;19924;-70
2021/07/01 12:17:58;;;;;;;;;;;;;;;14.70;100.00;100430.06;5092174;28;19973;-70
2021/07/01 12:20:32;;;;;;;;;;;;;;;14.71;100.00;100431.78;5089114;28;19933;-70
2021/07/01 12:22:59;;;;;;;;;;;;;;;14.77;100.00;100434.91;5090375;28;20459;-70
2021/07/01 12:25:44;;;;;;;;;;;;;;;14.77;100.00;100437.63;5092874;28;20444;-70
2021/07/01 12:28:13;;;;;;;;;;;;;;;14.83;100.00;100435.13;5082009;28;20006;-70
2021/07/01 12:30:51;;;;;;;;;;;;;;;14.84;100.00;100434.06;5092215;28;19955;-70
2021/07/01 12:33:30;;;;;;;;;;;;;;;14.95;100.00;100440.31;5091549;28;19929;-70
2021/07/01 12:36:02;;;;;;;;;;;;;;;14.95;100.00;100432.13;5092023;28;19920;-70
2021/07/01 12:38:29;;;;;;;;;;;;;;;14.98;100.00;100426.31;5091382;28;19974;-70
2021/07/01 12:40:55;;;;;;;;;;;;;;;15.01;100.00;100431.47;5091913;28;19955;-70
2021/07/01 12:43:37;;;;;;;;;;;;;;;15.14;100.00;100436.50;5092063;28;19920;-70
2021/07/01 12:46:04;;;;;;;;;;;;;;;15.19;100.00;100454.16;5090994;28;20046;-69